Time;durP1;ratioP1;P1;durP2;ratioP2;P2;SDS_P1;SDS_P2;PMS_P1;PMS_P2;Temp;Humidity;BMP_temperature;BMP_pressure;BME280_temperature;BME280_humidity;BME280_pressure;Samples;Min_cycle;Max_cycle;Signal;HPM_P1;HPM_P2
2022/12/10 00:02:11;;;;;;;;;;;;;;;21.02;35.24;100667.50;7245951;19;152744;-51
2022/12/10 00:04:38;;;;;;;;;;;;;;;21.03;35.73;100677.59;7247481;19;154514;-52
2022/12/10 00:07:04;;;;;;;;;;;;;;;21.03;35.64;100672.78;7240611;19;155984;-52
2022/12/10 00:09:31;;;;;;;;;;;;;;;21.03;35.20;100663.53;7251076;19;153697;-52
2022/12/10 00:11:58;;;;;;;;;;;;;;;21.03;35.52;100675.59;7250205;19;153971;-52
2022/12/10 00:14:25;;;;;;;;;;;;;;;21.03;35.21;100674.78;7251277;19;153544;-51
2022/12/10 00:16:52;;;;;;;;;;;;;;;21.03;35.65;100674.78;7254182;19;152846;-52
2022/12/10 00:19:18;;;;;;;;;;;;;;;21.02;35.51;100673.09;7249892;19;154256;-52
2022/12/10 00:21:45;;;;;;;;;;;;;;;21.01;35.74;100669.47;7249994;19;153463;-53
2022/12/10 00:24:12;;;;;;;;;;;;;;;20.99;35.70;100671.75;7253541;19;154032;-52
2022/12/10 00:26:39;;;;;;;;;;;;;;;20.99;35.21;100677.38;7249871;19;153168;-52
2022/12/10 00:29:07;;;;;;;;;;;;;;;20.99;35.49;100673.72;7251955;19;153420;-52
2022/12/10 00:31:35;;;;;;;;;;;;;;;20.97;35.05;100676.03;7256579;19;154039;-52
2022/12/10 00:34:03;;;;;;;;;;;;;;;20.96;35.06;100675.22;7254262;19;153841;-52
2022/12/10 00:36:33;;;;;;;;;;;;;;;20.95;35.03;100675.50;7247175;19;154296;-51
2022/12/10 00:39:00;;;;;;;;;;;;;;;20.94;35.21;100671.06;7252556;19;154618;-52
2022/12/10 00:41:27;;;;;;;;;;;;;;;20.91;35.07;100668.88;7250600;19;153512;-51
2022/12/10 00:43:54;;;;;;;;;;;;;;;20.90;35.31;100672.81;7250874;19;154084;-51
2022/12/10 00:46:21;;;;;;;;;;;;;;;20.89;35.25;100674.00;7248164;19;154067;-52
2022/12/10 00:48:48;;;;;;;;;;;;;;;20.87;34.98;100677.13;7253860;19;153372;-52
2022/12/10 00:51:16;;;;;;;;;;;;;;;20.85;35.22;100680.22;7255098;19;153476;-52
2022/12/10 00:53:44;;;;;;;;;;;;;;;20.83;34.92;100685.34;7250031;19;153298;-52
2022/12/10 00:56:11;;;;;;;;;;;;;;;20.81;35.00;100679.22;7251572;19;155671;-52
2022/12/10 00:58:38;;;;;;;;;;;;;;;20.79;34.88;100687.13;7251082;19;153796;-52
2022/12/10 01:01:15;;;;;;;;;;;;;;;20.77;35.29;100689.41;7252334;19;153648;-52
2022/12/10 01:03:42;;;;;;;;;;;;;;;20.76;34.91;100684.09;7254362;19;152914;-52
2022/12/10 01:06:13;;;;;;;;;;;;;;;20.74;34.98;100686.41;7249697;19;156255;-51
2022/12/10 01:08:40;;;;;;;;;;;;;;;20.71;35.28;100690.69;7253658;19;154274;-52
2022/12/10 01:11:08;;;;;;;;;;;;;;;20.68;34.85;100691.31;7252747;19;154344;-52
2022/12/10 01:13:35;;;;;;;;;;;;;;;20.66;35.32;100696.44;7259292;19;154608;-52
2022/12/10 01:16:05;;;;;;;;;;;;;;;20.63;35.11;100690.59;7253766;19;153431;-51
2022/12/10 01:18:32;;;;;;;;;;;;;;;20.60;35.65;100686.44;7249623;19;153881;-52
2022/12/10 01:21:03;;;;;;;;;;;;;;;20.56;35.31;100685.41;7248180;19;152688;-52
2022/12/10 01:23:32;;;;;;;;;;;;;;;20.53;35.29;100691.69;7253045;19;153377;-51
2022/12/10 01:26:03;;;;;;;;;;;;;;;20.50;35.79;100697.06;7248743;19;154628;-51
2022/12/10 01:28:30;;;;;;;;;;;;;;;20.45;35.47;100691.56;7250037;19;154365;-52
2022/12/10 01:31:03;;;;;;;;;;;;;;;20.41;35.45;100696.97;7248036;19;153448;-52
2022/12/10 01:33:30;;;;;;;;;;;;;;;20.37;35.72;100695.94;7248997;19;153094;-52
2022/12/10 01:36:01;;;;;;;;;;;;;;;20.34;35.75;100688.16;7252951;19;152173;-52
2022/12/10 01:38:28;;;;;;;;;;;;;;;20.31;35.43;100692.41;7248753;19;152475;-55
2022/12/10 01:40:55;;;;;;;;;;;;;;;20.28;35.68;100692.19;7247858;19;153951;-53
2022/12/10 01:43:22;;;;;;;;;;;;;;;20.24;35.50;100691.97;7250473;19;153761;-52
2022/12/10 01:45:48;;;;;;;;;;;;;;;20.18;35.70;100690.41;7248749;19;155207;-52
2022/12/10 01:48:15;;;;;;;;;;;;;;;20.15;35.96;100687.41;7251831;19;153326;-52
2022/12/10 01:50:42;;;;;;;;;;;;;;;20.11;35.54;100691.97;7246194;19;155771;-52
2022/12/10 01:53:09;;;;;;;;;;;;;;;20.05;36.04;100696.03;7249433;19;155286;-52
2022/12/10 01:55:47;;;;;;;;;;;;;;;19.95;35.79;100691.44;7250243;19;151955;-51
2022/12/10 01:58:15;;;;;;;;;;;;;;;19.89;36.03;100687.09;7257599;19;154040;-51
2022/12/10 02:00:46;;;;;;;;;;;;;;;19.85;35.81;100692.47;7248384;19;153069;-52
2022/12/10 02:03:18;;;;;;;;;;;;;;;19.81;36.02;100697.03;7249802;19;152595;-52
2022/12/10 02:05:52;;;;;;;;;;;;;;;19.74;35.85;100699.44;7248576;19;154934;-52
2022/12/10 02:08:24;;;;;;;;;;;;;;;19.69;35.88;100698.69;7248485;19;152181;-52
2022/12/10 02:10:59;;;;;;;;;;;;;;;19.65;36.13;100706.06;7246210;19;153948;-51
2022/12/10 02:13:26;;;;;;;;;;;;;;;19.60;36.05;100700.53;7246797;19;153809;-51
2022/12/10 02:16:03;;;;;;;;;;;;;;;19.54;35.95;100706.25;7250438;19;154070;-51
2022/12/10 02:18:40;;;;;;;;;;;;;;;19.50;36.10;100710.78;7247537;19;154035;-51
2022/12/10 02:21:11;;;;;;;;;;;;;;;19.48;36.07;100703.84;7253637;19;154344;-50
2022/12/10 02:23:41;;;;;;;;;;;;;;;19.47;36.38;100704.97;7250285;19;153135;-52
2022/12/10 02:26:08;;;;;;;;;;;;;;;19.45;36.23;100696.88;7249254;19;154862;-52
2022/12/10 02:28:44;;;;;;;;;;;;;;;19.43;35.90;100696.38;7250007;19;153402;-51
2022/12/10 02:31:11;;;;;;;;;;;;;;;19.42;35.93;100708.66;7246335;19;154567;-51
2022/12/10 02:33:41;;;;;;;;;;;;;;;19.39;36.04;100714.91;7245609;19;153364;-51
2022/12/10 02:36:10;;;;;;;;;;;;;;;19.33;36.22;100702.09;7247995;19;152982;-51
2022/12/10 02:38:37;;;;;;;;;;;;;;;19.33;35.87;100707.72;7248854;19;154266;-51
2022/12/10 02:41:07;;;;;;;;;;;;;;;19.30;36.09;100699.09;7244575;19;153703;-51
2022/12/10 02:43:35;;;;;;;;;;;;;;;19.26;36.20;100698.03;7256462;19;152812;-51
2022/12/10 02:46:03;;;;;;;;;;;;;;;19.23;36.02;100695.84;7247064;19;153498;-52
2022/12/10 02:48:32;;;;;;;;;;;;;;;19.18;36.43;100701.53;7243336;19;152332;-51
2022/12/10 02:50:59;;;;;;;;;;;;;;;19.15;36.11;100693.75;7242177;19;154896;-52
2022/12/10 02:53:26;;;;;;;;;;;;;;;19.11;36.53;100690.72;7248181;19;154172;-52
2022/12/10 02:56:02;;;;;;;;;;;;;;;19.10;36.15;100687.09;7248863;19;154143;-52
2022/12/10 02:58:35;;;;;;;;;;;;;;;19.07;36.36;100693.31;7249591;19;153677;-51
2022/12/10 03:01:06;;;;;;;;;;;;;;;19.04;36.26;100695.88;7245568;19;154549;-52
2022/12/10 03:03:38;;;;;;;;;;;;;;;18.96;36.76;100694.59;7257614;19;153547;-51
2022/12/10 03:06:08;;;;;;;;;;;;;;;18.94;36.50;100687.66;7241493;19;153062;-52
2022/12/10 03:08:38;;;;;;;;;;;;;;;18.90;36.72;100695.81;7250769;19;153631;-52
2022/12/10 03:11:10;;;;;;;;;;;;;;;18.84;37.05;100688.63;7246894;19;152642;-52
2022/12/10 03:13:40;;;;;;;;;;;;;;;18.79;36.90;100688.72;7246956;19;154151;-51
2022/12/10 03:16:08;;;;;;;;;;;;;;;18.76;36.80;100694.09;7246770;19;153960;-52
2022/12/10 03:18:37;;;;;;;;;;;;;;;18.76;37.03;100694.88;7248688;19;152857;-51
2022/12/10 03:21:05;;;;;;;;;;;;;;;18.73;37.06;100694.66;7244856;19;155426;-51
2022/12/10 03:23:34;;;;;;;;;;;;;;;18.67;37.55;100691.09;7245214;19;153292;-52
2022/12/10 03:26:01;;;;;;;;;;;;;;;18.65;37.16;100694.22;7253235;19;152821;-51
2022/12/10 03:28:31;;;;;;;;;;;;;;;18.65;37.27;100694.22;7246731;19;153782;-51
2022/12/10 03:30:58;;;;;;;;;;;;;;;18.60;37.54;100687.88;7245989;19;154275;-52
2022/12/10 03:33:25;;;;;;;;;;;;;;;18.58;37.65;100688.16;7247722;19;156293;-52
2022/12/10 03:35:52;;;;;;;;;;;;;;;18.53;37.51;100693.81;7246888;19;153141;-52
2022/12/10 03:38:19;;;;;;;;;;;;;;;18.54;37.22;100697.47;7245795;19;153697;-51
2022/12/10 03:40:46;;;;;;;;;;;;;;;18.49;37.75;100692.72;7243870;19;154373;-53
2022/12/10 03:43:13;;;;;;;;;;;;;;;18.47;37.78;100699.78;7245732;19;153104;-52
2022/12/10 03:45:40;;;;;;;;;;;;;;;18.42;37.63;100697.03;7243892;19;154021;-52
2022/12/10 03:48:07;;;;;;;;;;;;;;;18.40;37.91;100702.09;7253395;19;153299;-51
2022/12/10 03:50:34;;;;;;;;;;;;;;;18.40;37.81;100697.34;7245404;19;153840;-52
2022/12/10 03:53:01;;;;;;;;;;;;;;;18.37;37.98;100708.28;7245563;19;154724;-52
2022/12/10 03:55:28;;;;;;;;;;;;;;;18.34;37.91;100694.91;7247326;19;153392;-51
2022/12/10 03:57:55;;;;;;;;;;;;;;;18.31;37.79;100695.50;7245378;19;154162;-52
2022/12/10 04:00:21;;;;;;;;;;;;;;;18.26;37.99;100693.59;7247108;19;153697;-52
2022/12/10 04:02:48;;;;;;;;;;;;;;;18.23;37.68;100688.63;7246050;19;154612;-52
2022/12/10 04:05:15;;;;;;;;;;;;;;;18.20;37.68;100692.03;7246302;19;152440;-51
2022/12/10 04:07:42;;;;;;;;;;;;;;;18.16;37.83;100686.19;7243894;19;153999;-52
2022/12/10 04:10:09;;;;;;;;;;;;;;;18.14;37.66;100693.22;7251541;19;153877;-52
2022/12/10 04:12:36;;;;;;;;;;;;;;;18.10;38.14;100687.38;7245083;19;154896;-51
2022/12/10 04:17:39;;;;;;;;;;;;;;;18.08;38.24;100681.25;7244359;19;153548;-51
2022/12/10 04:26:51;;;;;;;;;;;;;;;18.00;38.13;100684.72;7243373;19;153494;-52
2022/12/10 04:28:05;;;;;;;;;;;;;;;17.92;38.23;100667.75;7245091;19;153376;-52
2022/12/10 04:30:32;;;;;;;;;;;;;;;17.89;38.52;100676.75;7246713;19;152990;-51
2022/12/10 04:32:59;;;;;;;;;;;;;;;17.93;38.31;100684.25;7252874;19;153667;-51
2022/12/10 04:35:26;;;;;;;;;;;;;;;17.90;38.59;100682.03;7245505;19;153889;-52
2022/12/10 04:37:53;;;;;;;;;;;;;;;17.86;38.65;100680.97;7240224;19;154094;-52
2022/12/10 04:40:19;;;;;;;;;;;;;;;17.83;38.30;100681.56;7245850;19;154518;-51
2022/12/10 04:42:46;;;;;;;;;;;;;;;17.81;38.33;100686.59;7245602;19;153939;-52
2022/12/10 04:45:13;;;;;;;;;;;;;;;17.78;38.59;100695.59;7246897;19;153087;-52
2022/12/10 04:47:40;;;;;;;;;;;;;;;17.74;38.44;100700.09;7242679;19;154991;-51
2022/12/10 04:50:07;;;;;;;;;;;;;;;17.71;38.77;100711.88;7243633;19;151886;-51
2022/12/10 04:52:34;;;;;;;;;;;;;;;17.71;38.23;100698.75;7242121;19;153120;-52
2022/12/10 04:55:01;;;;;;;;;;;;;;;17.67;38.35;100708.81;7253160;19;152657;-53
2022/12/10 04:57:28;;;;;;;;;;;;;;;17.70;38.10;100701.84;7248171;19;153567;-52
2022/12/10 04:59:54;;;;;;;;;;;;;;;17.63;38.56;100698.53;7252745;19;153630;-51
2022/12/10 05:02:22;;;;;;;;;;;;;;;17.69;38.45;100686.19;7251178;19;153388;-52
2022/12/10 05:04:49;;;;;;;;;;;;;;;17.63;38.68;100690.16;7253981;19;153335;-51
2022/12/10 05:07:16;;;;;;;;;;;;;;;17.56;38.91;100692.44;7245451;19;154222;-52
2022/12/10 05:09:43;;;;;;;;;;;;;;;17.53;38.81;100684.66;7252257;19;153371;-52
2022/12/10 05:12:09;;;;;;;;;;;;;;;17.50;38.76;100685.22;7248978;19;154712;-53
2022/12/10 05:14:36;;;;;;;;;;;;;;;17.47;38.65;100683.03;7252125;19;153040;-52
2022/12/10 05:17:03;;;;;;;;;;;;;;;17.54;38.74;100681.56;7251765;19;154620;-53
2022/12/10 05:19:30;;;;;;;;;;;;;;;17.54;38.47;100686.31;7250292;19;153105;-52
2022/12/10 05:24:33;;;;;;;;;;;;;;;17.38;38.96;100684.78;7250309;19;154175;-52
2022/12/10 05:27:00;;;;;;;;;;;;;;;17.35;38.84;100687.03;7250930;19;154763;-52
2022/12/10 05:29:27;;;;;;;;;;;;;;;17.38;38.71;100693.19;7252634;19;154357;-53
2022/12/10 05:31:54;;;;;;;;;;;;;;;17.35;38.70;100683.44;7247461;19;153540;-52
2022/12/10 05:34:21;;;;;;;;;;;;;;;17.35;38.96;100689.81;7251289;19;154163;-51
2022/12/10 05:36:48;;;;;;;;;;;;;;;17.32;38.85;100682.06;7258091;19;153443;-52
2022/12/10 05:39:15;;;;;;;;;;;;;;;17.29;38.76;100685.44;7247337;19;153590;-52
2022/12/10 05:41:43;;;;;;;;;;;;;;;17.31;38.72;100682.34;7251696;19;152744;-53
2022/12/10 05:44:10;;;;;;;;;;;;;;;17.29;38.97;100693.81;7251926;19;154320;-52
2022/12/10 05:46:37;;;;;;;;;;;;;;;17.24;38.99;100693.84;7248391;19;153164;-51
2022/12/10 05:49:05;;;;;;;;;;;;;;;17.22;39.11;100698.06;7252395;19;153717;-52
2022/12/10 05:51:33;;;;;;;;;;;;;;;17.20;38.96;100701.16;7246003;19;153180;-53
2022/12/10 05:54:01;;;;;;;;;;;;;;;17.20;38.71;100703.09;7246692;19;153931;-52
2022/12/10 05:56:28;;;;;;;;;;;;;;;17.17;38.92;100696.13;7249634;19;153187;-52
2022/12/10 05:58:58;;;;;;;;;;;;;;;17.16;38.67;100708.44;7253528;19;153909;-52
2022/12/10 06:01:26;;;;;;;;;;;;;;;17.12;38.67;100701.78;7252100;19;152739;-51
2022/12/10 06:03:53;;;;;;;;;;;;;;;17.08;39.00;100697.88;7248818;19;153187;-51
2022/12/10 06:06:22;;;;;;;;;;;;;;;17.08;38.75;100703.47;7244352;19;154620;-51
2022/12/10 06:08:49;;;;;;;;;;;;;;;17.06;39.08;100700.16;7247810;19;153457;-51
2022/12/10 06:11:16;;;;;;;;;;;;;;;17.05;39.14;100701.25;7246420;19;153226;-51
2022/12/10 06:13:43;;;;;;;;;;;;;;;17.01;38.81;100705.75;7246653;19;153906;-52
2022/12/10 06:16:11;;;;;;;;;;;;;;;16.98;39.08;100706.34;7250066;19;153578;-53
2022/12/10 06:18:38;;;;;;;;;;;;;;;17.00;38.90;100695.72;7247217;19;154244;-52
2022/12/10 06:21:06;;;;;;;;;;;;;;;16.98;38.88;100706.34;7253900;19;154774;-52
2022/12/10 06:23:34;;;;;;;;;;;;;;;16.95;39.30;100709.72;7247762;19;153912;-52
2022/12/10 06:26:05;;;;;;;;;;;;;;;16.93;39.16;100706.41;7247035;19;153438;-53
2022/12/10 06:28:31;;;;;;;;;;;;;;;16.92;39.08;100701.94;7249877;19;153434;-52
2022/12/10 06:30:59;;;;;;;;;;;;;;;16.90;39.20;100702.22;7247404;19;152751;-53
2022/12/10 06:33:26;;;;;;;;;;;;;;;16.89;39.44;100699.72;7247641;19;153658;-52
2022/12/10 06:35:53;;;;;;;;;;;;;;;16.88;39.36;100703.63;7243858;19;153896;-51
2022/12/10 06:38:20;;;;;;;;;;;;;;;16.87;38.96;100715.91;7248634;19;153636;-52
2022/12/10 06:40:47;;;;;;;;;;;;;;;16.85;39.44;100718.19;7248231;19;154022;-52
2022/12/10 06:43:13;;;;;;;;;;;;;;;16.83;39.15;100714.81;7254588;19;153987;-52
2022/12/10 06:45:41;;;;;;;;;;;;;;;16.82;39.36;100718.72;7244806;19;154287;-52
2022/12/10 06:48:08;;;;;;;;;;;;;;;16.79;39.35;100708.16;7249115;19;152708;-52
2022/12/10 06:50:35;;;;;;;;;;;;;;;16.80;39.54;100707.03;7248093;19;152968;-52
2022/12/10 06:53:03;;;;;;;;;;;;;;;16.85;39.30;100707.00;7245395;19;154030;-52
2022/12/10 06:55:29;;;;;;;;;;;;;;;16.90;39.36;100710.56;7248942;19;153750;-52
2022/12/10 06:57:56;;;;;;;;;;;;;;;16.95;39.68;100706.91;7248805;19;154104;-51
2022/12/10 07:00:23;;;;;;;;;;;;;;;16.96;40.00;100705.81;7247729;19;153785;-52
2022/12/10 07:02:50;;;;;;;;;;;;;;;16.97;39.87;100709.44;7254312;19;153192;-52
2022/12/10 07:05:17;;;;;;;;;;;;;;;16.99;40.32;100718.34;7247222;19;154951;-52
2022/12/10 07:07:44;;;;;;;;;;;;;;;17.00;40.35;100711.63;7245739;19;152036;-51
2022/12/10 07:10:11;;;;;;;;;;;;;;;17.03;40.54;100711.91;7243061;19;153648;-52
2022/12/10 07:12:37;;;;;;;;;;;;;;;17.07;40.67;100724.16;7244456;19;153283;-52
2022/12/10 07:15:05;;;;;;;;;;;;;;;17.10;40.96;100723.56;7246648;19;153360;-51
2022/12/10 07:17:31;;;;;;;;;;;;;;;17.15;41.29;100720.72;7245618;19;153616;-51
2022/12/10 07:19:58;;;;;;;;;;;;;;;17.19;41.03;100724.59;7244189;19;154774;-51
2022/12/10 07:22:25;;;;;;;;;;;;;;;17.24;40.79;100724.56;7244909;19;154488;-52
2022/12/10 07:24:52;;;;;;;;;;;;;;;17.29;41.16;100726.47;7255998;19;152919;-52
2022/12/10 07:27:18;;;;;;;;;;;;;;;17.33;40.93;100724.78;7248080;19;153126;-52
2022/12/10 07:29:45;;;;;;;;;;;;;;;17.39;40.65;100731.16;7246214;19;153464;-52
2022/12/10 07:32:12;;;;;;;;;;;;;;;17.44;40.71;100728.31;7245136;19;155402;-53
2022/12/10 07:34:39;;;;;;;;;;;;;;;17.50;40.95;100732.72;7248029;19;152733;-53
2022/12/10 07:37:06;;;;;;;;;;;;;;;17.54;40.67;100725.41;7245465;19;153570;-53
2022/12/10 07:39:33;;;;;;;;;;;;;;;17.59;40.45;100725.41;7244058;19;156001;-52
2022/12/10 07:42:00;;;;;;;;;;;;;;;17.64;40.43;100722.56;7245423;19;153373;-52
2022/12/10 07:44:27;;;;;;;;;;;;;;;17.69;40.25;100726.13;7247994;19;154405;-51
2022/12/10 07:46:55;;;;;;;;;;;;;;;17.73;40.30;100726.38;7251399;19;154459;-52
2022/12/10 07:49:22;;;;;;;;;;;;;;;17.78;40.48;100732.75;7244531;19;153603;-52
2022/12/10 07:51:49;;;;;;;;;;;;;;;17.84;40.32;100729.91;7243935;19;153582;-51
2022/12/10 07:54:17;;;;;;;;;;;;;;;17.88;40.43;100723.44;7248427;19;153536;-52
2022/12/10 07:56:44;;;;;;;;;;;;;;;17.93;40.32;100716.94;7247227;19;153412;-53
2022/12/10 07:59:11;;;;;;;;;;;;;;;17.98;40.57;100728.06;7246115;19;154165;-52
2022/12/10 08:01:38;;;;;;;;;;;;;;;18.03;40.21;100728.03;7247985;19;153956;-52
2022/12/10 08:04:04;;;;;;;;;;;;;;;18.08;40.15;100727.97;7245160;19;153826;-52
2022/12/10 08:06:31;;;;;;;;;;;;;;;18.12;40.04;100737.44;7243977;19;154464;-51
2022/12/10 08:08:59;;;;;;;;;;;;;;;18.16;40.35;100730.09;7252045;19;153282;-52
2022/12/10 08:11:26;;;;;;;;;;;;;;;18.19;40.32;100730.34;7247478;19;153804;-52
2022/12/10 08:13:53;;;;;;;;;;;;;;;18.23;40.00;100728.59;7246703;19;154089;-53
2022/12/10 08:16:25;;;;;;;;;;;;;;;18.28;39.96;100738.06;7246865;19;153137;-50
2022/12/10 08:18:53;;;;;;;;;;;;;;;18.31;40.37;100731.84;7242026;19;155056;-53
2022/12/10 08:21:20;;;;;;;;;;;;;;;18.36;39.91;100737.38;7239598;19;152226;-53
2022/12/10 08:23:47;;;;;;;;;;;;;;;18.38;40.21;100738.78;7242018;19;153280;-52
2022/12/10 08:26:16;;;;;;;;;;;;;;;18.40;40.10;100742.09;7242195;19;154697;-52
2022/12/10 08:28:43;;;;;;;;;;;;;;;18.43;39.89;100741.50;7243718;19;155458;-52
2022/12/10 08:31:11;;;;;;;;;;;;;;;18.47;40.26;100741.75;7251796;19;153959;-52
2022/12/10 08:33:38;;;;;;;;;;;;;;;18.49;40.55;100753.44;7250882;19;153636;-52
2022/12/10 08:36:06;;;;;;;;;;;;;;;18.50;40.32;100753.16;7247836;19;153341;-52
2022/12/10 08:38:33;;;;;;;;;;;;;;;18.52;40.35;100758.47;7250464;19;153463;-52
2022/12/10 08:41:04;;;;;;;;;;;;;;;18.53;40.34;100762.97;7251297;19;153815;-52
2022/12/10 08:43:31;;;;;;;;;;;;;;;18.54;40.21;100761.81;7254438;19;154447;-53
2022/12/10 08:45:58;;;;;;;;;;;;;;;18.54;39.43;100759.84;7248923;19;155414;-51
2022/12/10 08:48:25;;;;;;;;;;;;;;;18.56;39.86;100757.59;7253021;19;153162;-52
2022/12/10 08:50:52;;;;;;;;;;;;;;;18.56;39.71;100752.00;7247903;19;153987;-52
2022/12/10 08:53:19;;;;;;;;;;;;;;;18.58;39.88;100760.06;7253538;19;153986;-51
2022/12/10 08:55:48;;;;;;;;;;;;;;;18.58;39.78;100760.91;7250976;19;153390;-51
2022/12/10 08:58:15;;;;;;;;;;;;;;;18.59;38.95;100758.94;7249150;19;156167;-51
2022/12/10 09:00:42;;;;;;;;;;;;;;;18.58;39.26;100760.91;7251033;19;154860;-52
2022/12/10 09:03:09;;;;;;;;;;;;;;;18.58;39.58;100760.91;7252159;19;154353;-52
2022/12/10 09:05:36;;;;;;;;;;;;;;;18.58;39.34;100757.28;7246492;19;156150;-52
2022/12/10 09:08:03;;;;;;;;;;;;;;;18.58;39.18;100760.91;7248318;19;153495;-52
2022/12/10 09:10:30;;;;;;;;;;;;;;;18.57;39.18;100764.03;7247934;19;154986;-51
2022/12/10 09:12:57;;;;;;;;;;;;;;;18.58;38.96;100766.50;7254836;19;155601;-51
2022/12/10 09:15:29;;;;;;;;;;;;;;;18.57;38.94;100762.06;7244670;19;153813;-52
2022/12/10 09:17:55;;;;;;;;;;;;;;;18.56;38.88;100762.34;7248688;19;152806;-52
2022/12/10 09:20:22;;;;;;;;;;;;;;;18.57;38.59;100769.63;7251789;19;153907;-52
2022/12/10 09:22:49;;;;;;;;;;;;;;;18.56;38.81;100766.00;7247259;19;153688;-51
2022/12/10 09:25:16;;;;;;;;;;;;;;;18.55;38.68;100761.50;7249961;19;153250;-51
2022/12/10 09:27:43;;;;;;;;;;;;;;;18.55;38.88;100767.13;7251230;19;154316;-52
2022/12/10 09:30:11;;;;;;;;;;;;;;;18.55;38.95;100769.06;7252307;19;153461;-52
2022/12/10 09:32:38;;;;;;;;;;;;;;;18.53;38.76;100762.97;7247240;19;153982;-52
2022/12/10 09:35:07;;;;;;;;;;;;;;;18.53;39.00;100771.34;7256872;19;154566;-52
2022/12/10 09:37:34;;;;;;;;;;;;;;;18.52;39.16;100769.66;7246671;19;153071;-51
2022/12/10 09:40:00;;;;;;;;;;;;;;;18.57;38.98;100766.81;7250713;19;153910;-51
2022/12/10 09:42:30;;;;;;;;;;;;;;;18.46;38.28;100763.28;7247244;19;153802;-52
2022/12/10 09:44:59;;;;;;;;;;;;;;;18.45;38.86;100777.56;7247054;19;153003;-52
2022/12/10 09:47:34;;;;;;;;;;;;;;;18.46;38.84;100779.22;7247154;19;152625;-51
2022/12/10 09:50:08;;;;;;;;;;;;;;;18.46;38.89;100776.44;7248470;19;154008;-52
2022/12/10 09:52:41;;;;;;;;;;;;;;;18.47;39.09;100781.75;7243779;19;156735;-52
2022/12/10 09:55:14;;;;;;;;;;;;;;;18.50;39.06;100777.50;7247784;19;153548;-51
2022/12/10 09:57:42;;;;;;;;;;;;;;;18.52;39.09;100772.44;7253288;19;154249;-53
2022/12/10 10:00:17;;;;;;;;;;;;;;;18.54;39.22;100770.19;7250357;19;154721;-52
2022/12/10 10:02:44;;;;;;;;;;;;;;;18.57;39.67;100778.00;7244975;19;154367;-53
2022/12/10 10:05:14;;;;;;;;;;;;;;;18.58;39.56;100774.91;7244129;19;153962;-52
2022/12/10 10:07:44;;;;;;;;;;;;;;;18.62;39.93;100777.94;7245397;19;153691;-52
2022/12/10 10:10:18;;;;;;;;;;;;;;;18.69;40.39;100774.78;7244122;19;153228;-53
2022/12/10 10:12:45;;;;;;;;;;;;;;;18.90;39.32;100784.53;7242558;19;154901;-53
2022/12/10 10:15:15;;;;;;;;;;;;;;;18.72;35.34;100780.59;7239712;19;153079;-51
2022/12/10 10:17:45;;;;;;;;;;;;;;;18.65;36.09;100780.97;7245114;19;153939;-51
2022/12/10 10:20:13;;;;;;;;;;;;;;;18.63;36.31;100774.00;7246492;19;155312;-51
2022/12/10 10:22:40;;;;;;;;;;;;;;;18.63;36.57;100786.03;7242461;19;153938;-52
2022/12/10 10:25:16;;;;;;;;;;;;;;;18.64;36.73;100786.88;7247488;19;153605;-51
2022/12/10 10:27:43;;;;;;;;;;;;;;;18.63;36.29;100788.00;7247867;19;154959;-51
2022/12/10 10:30:16;;;;;;;;;;;;;;;18.63;36.60;100782.38;7247219;19;154531;-51
2022/12/10 10:32:47;;;;;;;;;;;;;;;18.67;36.62;100783.47;7247313;19;153395;-51
2022/12/10 10:35:24;;;;;;;;;;;;;;;18.69;36.23;100777.56;7245647;19;154214;-51
2022/12/10 10:37:52;;;;;;;;;;;;;;;18.71;36.65;100780.91;7245066;19;153725;-51
2022/12/10 10:40:29;;;;;;;;;;;;;;;18.70;36.46;100774.47;7243753;19;154332;-51
2022/12/10 10:42:57;;;;;;;;;;;;;;;18.73;36.08;100773.88;7254123;19;153474;-52
2022/12/10 10:45:34;;;;;;;;;;;;;;;18.73;36.06;100779.47;7244265;19;153732;-52
2022/12/10 10:48:10;;;;;;;;;;;;;;;18.76;36.04;100775.25;7247037;19;152783;-51
2022/12/10 10:50:40;;;;;;;;;;;;;;;18.80;36.17;100771.56;7245413;19;152588;-51
2022/12/10 10:53:17;;;;;;;;;;;;;;;18.80;35.96;100773.50;7241027;19;153385;-51
2022/12/10 10:55:45;;;;;;;;;;;;;;;18.85;36.29;100776.25;7247546;19;154378;-51
2022/12/10 10:58:17;;;;;;;;;;;;;;;18.84;36.19;100772.59;7248274;19;153800;-51
2022/12/10 11:00:52;;;;;;;;;;;;;;;18.85;35.97;100777.06;7249039;19;154119;-51
2022/12/10 11:03:20;;;;;;;;;;;;;;;18.89;36.28;100777.31;7247930;19;154399;-51
2022/12/10 11:05:48;;;;;;;;;;;;;;;18.90;35.93;100779.78;7249977;19;152990;-50
2022/12/10 11:08:17;;;;;;;;;;;;;;;18.91;36.04;100769.41;7247956;19;154442;-52
2022/12/10 11:10:55;;;;;;;;;;;;;;;18.93;35.80;100759.59;7244502;19;153780;-52
2022/12/10 11:13:25;;;;;;;;;;;;;;;18.96;35.76;100756.19;7175663;19;154502;-52
2022/12/10 11:15:57;;;;;;;;;;;;;;;18.99;35.77;100763.97;7231435;19;156918;-52
2022/12/10 11:18:25;;;;;;;;;;;;;;;19.01;36.11;100770.13;7240673;19;153811;-51
2022/12/10 11:21:00;;;;;;;;;;;;;;;19.04;36.05;100768.66;7243199;19;155323;-52
2022/12/10 11:23:29;;;;;;;;;;;;;;;19.06;35.77;100766.41;7241703;19;153794;-51
2022/12/10 11:25:58;;;;;;;;;;;;;;;19.07;36.09;100763.31;7251883;19;153827;-51
2022/12/10 11:28:26;;;;;;;;;;;;;;;19.10;35.90;100761.84;7246689;19;153566;-52
2022/12/10 11:30:59;;;;;;;;;;;;;;;19.12;35.63;100768.00;7247637;19;152355;-53
2022/12/10 11:33:34;;;;;;;;;;;;;;;19.16;35.69;100765.41;7242704;19;153545;-52
2022/12/10 11:36:11;;;;;;;;;;;;;;;19.18;35.67;100765.94;7243351;19;151999;-52
2022/12/10 11:38:47;;;;;;;;;;;;;;;19.20;35.94;100756.09;7244900;19;153550;-52
2022/12/10 11:41:23;;;;;;;;;;;;;;;19.23;35.94;100751.84;7248444;19;153626;-52
2022/12/10 11:43:51;;;;;;;;;;;;;;;19.24;35.79;100743.16;7249530;19;153760;-52
2022/12/10 11:46:28;;;;;;;;;;;;;;;19.27;35.84;100755.72;7248288;19;154309;-52
2022/12/10 11:49:05;;;;;;;;;;;;;;;19.30;35.58;100755.13;7254157;19;154009;-52
2022/12/10 11:51:32;;;;;;;;;;;;;;;19.33;35.86;100751.69;7243374;19;154743;-53
2022/12/10 11:54:08;;;;;;;;;;;;;;;19.34;35.38;100751.41;7242039;19;154382;-52
2022/12/10 11:56:40;;;;;;;;;;;;;;;19.36;35.60;100749.09;7242653;19;152605;-52
2022/12/10 11:59:16;;;;;;;;;;;;;;;19.39;35.48;100745.72;7241460;19;153960;-52
2022/12/10 12:01:58;;;;;;;;;;;;;;;19.42;35.59;100747.06;7227402;19;153205;-52
2022/12/10 12:04:35;;;;;;;;;;;;;;;19.45;35.70;100743.66;7242263;19;153368;-52
2022/12/10 12:07:07;;;;;;;;;;;;;;;19.47;35.71;100747.00;7247379;19;154498;-51
2022/12/10 12:09:43;;;;;;;;;;;;;;;19.49;35.47;100737.16;7246097;19;154018;-52
2022/12/10 12:12:14;;;;;;;;;;;;;;;19.52;35.69;100733.75;7253811;19;155284;-51
2022/12/10 12:14:50;;;;;;;;;;;;;;;19.54;35.26;100741.84;7246235;19;152996;-50
2022/12/10 12:17:21;;;;;;;;;;;;;;;19.57;35.65;100738.44;7243149;19;153321;-51
2022/12/10 12:19:51;;;;;;;;;;;;;;;19.58;35.52;100742.88;7249395;19;154795;-52
2022/12/10 12:22:22;;;;;;;;;;;;;;;19.61;35.68;100739.47;7245318;19;153872;-51
2022/12/10 12:24:51;;;;;;;;;;;;;;;19.63;35.42;100727.94;7250382;19;153550;-52
2022/12/10 12:27:19;;;;;;;;;;;;;;;19.66;35.62;100731.00;7247738;19;154714;-51
2022/12/10 12:30:00;;;;;;;;;;;;;;;19.68;35.60;100731.50;7246636;19;154589;-52
2022/12/10 12:32:31;;;;;;;;;;;;;;;19.70;35.12;100734.84;7249663;19;153811;-51
2022/12/10 12:35:01;;;;;;;;;;;;;;;19.74;35.33;100743.44;7253451;19;154043;-51
2022/12/10 12:37:35;;;;;;;;;;;;;;;19.75;35.20;100725.50;7250290;19;153682;-51
2022/12/10 12:40:09;;;;;;;;;;;;;;;19.76;35.08;100736.38;7253204;19;154227;-52
2022/12/10 12:42:46;;;;;;;;;;;;;;;19.79;35.11;100727.38;7250029;19;154210;-51
2022/12/10 12:45:16;;;;;;;;;;;;;;;19.80;35.45;100726.25;7252639;19;152754;-51
2022/12/10 12:47:48;;;;;;;;;;;;;;;19.83;35.37;100724.78;7249716;19;153411;-51